createdAt,value
2022-08-02T14:10:26.663Z,26.32
2022-08-02T14:13:56.148Z,26.39
2022-08-02T14:16:23.106Z,26.36
2022-08-02T14:18:59.959Z,26.32
2022-08-02T14:21:26.830Z,26.27
2022-08-02T14:23:53.620Z,26.16
2022-08-02T14:26:27.536Z,26.11
2022-08-02T14:28:55.744Z,26.11
2022-08-02T14:31:25.951Z,26.10
2022-08-02T14:33:53.879Z,26.03
2022-08-02T14:36:27.520Z,26.03
2022-08-02T14:38:55.455Z,26.05
2022-08-02T14:41:23.425Z,26.11
2022-08-02T14:44:05.695Z,26.08
2022-08-02T14:46:33.407Z,26.08
2022-08-02T14:49:04.429Z,26.14
2022-08-02T14:51:32.056Z,26.14
2022-08-02T14:54:03.030Z,26.13
2022-08-02T14:56:30.811Z,26.09
2022-08-02T14:58:57.853Z,26.06
2022-08-02T15:01:26.190Z,26.00
2022-08-02T15:03:53.570Z,25.95
2022-08-02T15:06:20.613Z,25.85
2022-08-02T15:08:47.545Z,25.79
2022-08-02T15:11:14.348Z,25.74
2022-08-02T15:13:44.437Z,25.70
2022-08-02T15:16:11.292Z,25.67
2022-08-02T15:18:38.224Z,25.67
2022-08-02T15:21:31.669Z,25.69
2022-08-02T15:23:54.247Z,25.65
2022-08-02T15:26:21.343Z,25.65
2022-08-02T15:28:55.515Z,25.63
2022-08-02T15:31:33.403Z,25.61
2022-08-02T15:34:01.154Z,25.62
2022-08-02T15:36:29.759Z,25.62
2022-08-02T15:38:57.743Z,25.61
2022-08-02T15:41:25.016Z,25.62
2022-08-02T15:44:00.666Z,25.62
2022-08-02T15:46:30.642Z,25.61
2022-08-02T15:48:58.017Z,25.59
2022-08-02T15:51:26.674Z,25.55
2022-08-02T15:53:55.602Z,25.54
2022-08-02T16:24:58.342Z,25.78
2022-08-02T16:27:25.269Z,25.55
2022-08-02T16:29:52.138Z,25.43
2022-08-02T16:32:19.571Z,25.36
2022-08-02T16:35:08.003Z,25.30
2022-08-02T16:37:52.048Z,25.13
2022-08-02T16:40:20.857Z,25.04
2022-08-02T16:42:50.724Z,25.01
2022-08-02T16:45:20.858Z,24.99
2022-08-02T16:47:57.471Z,24.89
2022-08-02T16:50:28.485Z,24.82
2022-08-02T16:52:57.830Z,24.75
2022-08-02T16:55:25.611Z,24.64
2022-08-02T16:57:56.739Z,24.60
2022-08-02T17:00:24.301Z,24.52
2022-08-02T17:02:53.494Z,24.43
2022-08-02T17:05:21.084Z,24.38
2022-08-02T17:08:06.303Z,24.32
2022-08-02T17:10:36.285Z,24.28
2022-08-02T17:13:11.580Z,24.25
2022-08-02T17:16:16.569Z,24.20
2022-08-02T17:18:27.111Z,24.17
2022-08-02T17:20:55.058Z,24.11
2022-08-02T17:23:21.900Z,24.02
2022-08-02T17:25:52.343Z,23.96
2022-08-02T17:28:19.903Z,23.90
2022-08-02T17:30:46.718Z,23.88
2022-08-02T17:33:13.908Z,23.83
2022-08-02T17:35:52.095Z,23.78
2022-08-02T17:38:26.402Z,23.64
2022-08-02T17:40:55.629Z,23.62
2022-08-02T17:46:13.862Z,23.56
2022-08-02T17:48:59.794Z,23.45
2022-08-02T17:52:15.642Z,23.42
2022-08-02T17:54:18.899Z,23.38
2022-08-02T17:56:47.981Z,23.33
2022-08-02T17:59:20.388Z,23.29
2022-08-02T18:01:53.030Z,23.23
2022-08-02T18:04:33.380Z,23.20
2022-08-02T18:07:03.907Z,23.14
2022-08-02T18:09:32.217Z,23.11
2022-08-02T18:12:08.584Z,23.07
2022-08-02T18:14:35.463Z,23.03
2022-08-02T18:17:14.931Z,23.00
2022-08-02T18:19:55.292Z,22.95
2022-08-02T18:22:26.966Z,22.91
2022-08-02T18:24:54.493Z,22.86
2022-08-02T18:27:21.684Z,22.86
2022-08-02T18:29:48.694Z,22.83
2022-08-02T18:33:53.792Z,22.77
2022-08-02T18:35:14.396Z,22.70
2022-08-02T18:37:43.788Z,22.63
2022-08-02T18:40:13.297Z,22.64
2022-08-02T18:42:40.108Z,22.60
2022-08-02T18:45:07.936Z,22.59
2022-08-02T18:47:51.122Z,22.56
2022-08-02T18:50:33.619Z,22.52
2022-08-02T18:53:00.458Z,22.45
2022-08-02T18:55:59.984Z,22.39
2022-08-02T18:58:20.245Z,22.38
2022-08-02T19:00:51.451Z,22.37
2022-08-02T19:03:19.264Z,22.32
2022-08-02T19:05:51.649Z,22.30
2022-08-02T19:08:25.452Z,22.28
2022-08-02T19:13:42.891Z,22.22
2022-08-02T19:16:09.772Z,22.20
2022-08-02T19:18:37.825Z,22.16
2022-08-02T19:21:07.437Z,22.12
2022-08-02T19:23:35.911Z,22.12
2022-08-02T19:26:03.943Z,22.11
2022-08-02T19:28:30.835Z,22.10
2022-08-02T19:30:58.327Z,22.06
2022-08-02T19:34:04.498Z,22.04
2022-08-02T19:36:12.229Z,22.02
2022-08-02T19:38:44.017Z,22.02
2022-08-02T19:41:13.324Z,22.02
2022-08-02T19:44:23.899Z,22.00
2022-08-02T19:46:27.175Z,21.98
2022-08-02T19:48:54.122Z,21.97
2022-08-02T19:51:49.266Z,21.96
2022-08-02T19:54:10.913Z,21.97
2022-08-02T19:56:40.526Z,22.02
2022-08-02T19:59:13.038Z,22.11
2022-08-02T20:01:44.883Z,22.16
2022-08-02T20:04:15.729Z,22.20
2022-08-02T20:06:50.743Z,22.21
2022-08-02T20:09:21.276Z,22.26
2022-08-02T20:11:54.856Z,22.26
2022-08-02T20:14:26.915Z,22.26
2022-08-02T20:16:54.702Z,22.22
2022-08-02T20:19:21.818Z,22.20
2022-08-02T20:21:55.485Z,22.19
2022-08-02T20:24:26.611Z,22.17
2022-08-02T20:26:53.967Z,22.14
2022-08-02T20:29:43.090Z,22.13
2022-08-02T20:32:07.750Z,22.12
2022-08-02T20:34:36.400Z,22.15
2022-08-02T20:38:01.381Z,22.12
2022-08-02T20:39:52.044Z,22.10
2022-08-02T20:42:23.461Z,22.03
2022-08-02T20:44:55.342Z,22.01
2022-08-02T20:47:27.578Z,21.98
2022-08-02T20:50:31.829Z,21.93
2022-08-02T20:53:04.260Z,21.90
2022-08-02T20:55:32.012Z,21.89
2022-08-02T20:58:02.081Z,21.89
2022-08-02T21:00:30.478Z,21.87
2022-08-02T21:02:59.379Z,21.82
2022-08-02T21:05:43.573Z,21.80
2022-08-02T21:08:16.354Z,21.77
2022-08-02T21:10:51.811Z,21.78
2022-08-02T21:13:26.246Z,21.78
2022-08-02T21:15:55.481Z,21.78
2022-08-02T21:18:37.022Z,21.77
2022-08-02T21:21:08.633Z,21.68
2022-08-02T21:23:36.696Z,21.77
2022-08-02T21:26:04.826Z,21.84
2022-08-02T21:28:43.611Z,21.86
2022-08-02T21:31:15.861Z,21.87
2022-08-02T21:33:57.040Z,21.92
2022-08-02T21:36:39.839Z,22.11
2022-08-02T21:39:09.105Z,22.17
2022-08-02T21:41:46.093Z,22.17
2022-08-02T21:44:19.442Z,22.10
2022-08-02T21:46:49.314Z,21.99
2022-08-02T21:49:18.688Z,21.96
2022-08-02T21:51:48.884Z,21.89
2022-08-02T21:54:19.898Z,21.81
2022-08-02T21:56:52.251Z,21.80
2022-08-02T21:59:25.388Z,21.78
2022-08-02T22:01:56.703Z,21.73
2022-08-02T22:04:25.922Z,21.69
2022-08-02T22:06:54.858Z,21.68
2022-08-02T22:09:44.206Z,21.65
2022-08-02T22:12:17.658Z,21.60
2022-08-02T22:17:50.864Z,21.52
2022-08-02T22:20:23.436Z,21.47
2022-08-02T22:22:52.076Z,21.46
2022-08-02T22:25:30.978Z,21.37
2022-08-02T22:28:38.020Z,21.37
2022-08-02T22:30:56.976Z,21.33
2022-08-02T22:34:00.378Z,21.33
2022-08-02T22:36:43.322Z,21.35
2022-08-02T22:39:18.883Z,21.35
2022-08-02T22:42:05.495Z,21.38
2022-08-02T22:44:34.163Z,21.36
2022-08-02T22:47:03.860Z,21.35
2022-08-02T22:49:38.642Z,21.31
2022-08-02T22:52:12.691Z,21.29
2022-08-02T22:54:41.137Z,21.24
2022-08-02T22:57:11.515Z,21.22
2022-08-02T22:58:39.901Z,23.62
2022-08-02T22:58:58.995Z,22.25
2022-08-02T22:59:04.405Z,21.56
2022-08-02T22:59:40.646Z,21.18
2022-08-02T23:02:08.839Z,21.15
2022-08-02T23:04:36.777Z,21.16
2022-08-02T23:07:03.865Z,21.15
2022-08-02T23:09:30.792Z,21.12
2022-08-02T23:11:57.581Z,21.15
2022-08-02T23:14:24.402Z,21.09
2022-08-02T23:17:09.995Z,21.08
2022-08-02T23:19:52.153Z,21.08
2022-08-02T23:22:29.505Z,21.08
2022-08-02T23:25:01.019Z,21.09
2022-08-02T23:27:29.354Z,21.07
2022-08-02T23:29:56.375Z,21.05
2022-08-02T23:32:25.657Z,21.04
2022-08-02T23:34:56.556Z,21.02
2022-08-02T23:37:24.360Z,21.02
2022-08-02T23:39:53.622Z,20.99
2022-08-02T23:42:20.543Z,20.97
2022-08-02T23:44:47.365Z,20.97
2022-08-02T23:47:14.275Z,20.98
2022-08-02T23:49:41.185Z,20.97
2022-08-02T23:52:08.196Z,20.96
2022-08-02T23:54:35.605Z,20.96
2022-08-02T23:57:20.425Z,20.98
2022-08-02T23:59:49.188Z,20.97
